sensor_id;sensor_type;location;lat;lon;timestamp;P1;durP1;ratioP1;P2;durP2;ratioP2
66761;SDS011;53672;48.176;16.338;2023-08-20T00:02:58;23.17;;;15.57;;
66761;SDS011;53672;48.176;16.338;2023-08-20T00:08:02;18.95;;;13.75;;
66761;SDS011;53672;48.176;16.338;2023-08-20T00:13:03;23.00;;;15.37;;
66761;SDS011;53672;48.176;16.338;2023-08-20T00:18:05;19.40;;;15.13;;
66761;SDS011;53672;48.176;16.338;2023-08-20T00:23:07;21.05;;;14.85;;
66761;SDS011;53672;48.176;16.338;2023-08-20T00:28:08;21.75;;;15.05;;
66761;SDS011;53672;48.176;16.338;2023-08-20T00:33:09;18.77;;;14.07;;
66761;SDS011;53672;48.176;16.338;2023-08-20T00:38:10;21.07;;;14.20;;
66761;SDS011;53672;48.176;16.338;2023-08-20T00:43:10;21.17;;;15.23;;
66761;SDS011;53672;48.176;16.338;2023-08-20T00:48:12;18.50;;;14.13;;
66761;SDS011;53672;48.176;16.338;2023-08-20T00:53:13;19.80;;;14.52;;
66761;SDS011;53672;48.176;16.338;2023-08-20T00:58:14;19.30;;;14.90;;
66761;SDS011;53672;48.176;16.338;2023-08-20T01:03:16;20.13;;;15.00;;
66761;SDS011;53672;48.176;16.338;2023-08-20T01:08:21;22.00;;;15.73;;
66761;SDS011;53672;48.176;16.338;2023-08-20T01:13:27;21.60;;;15.05;;
66761;SDS011;53672;48.176;16.338;2023-08-20T01:18:29;17.93;;;13.90;;
66761;SDS011;53672;48.176;16.338;2023-08-20T01:23:36;19.60;;;14.23;;
66761;SDS011;53672;48.176;16.338;2023-08-20T01:28:56;21.47;;;14.70;;
66761;SDS011;53672;48.176;16.338;2023-08-20T01:33:57;18.67;;;14.27;;
66761;SDS011;53672;48.176;16.338;2023-08-20T01:38:58;21.60;;;15.20;;
66761;SDS011;53672;48.176;16.338;2023-08-20T01:44:00;20.90;;;15.00;;
66761;SDS011;53672;48.176;16.338;2023-08-20T01:49:00;20.80;;;14.37;;
66761;SDS011;53672;48.176;16.338;2023-08-20T01:54:00;20.87;;;13.53;;
66761;SDS011;53672;48.176;16.338;2023-08-20T01:59:02;21.93;;;15.03;;
66761;SDS011;53672;48.176;16.338;2023-08-20T02:04:03;21.90;;;14.88;;
66761;SDS011;53672;48.176;16.338;2023-08-20T02:09:04;20.03;;;14.77;;
66761;SDS011;53672;48.176;16.338;2023-08-20T02:14:06;20.90;;;14.67;;
66761;SDS011;53672;48.176;16.338;2023-08-20T02:19:06;18.83;;;14.13;;
66761;SDS011;53672;48.176;16.338;2023-08-20T02:24:07;20.87;;;14.53;;
66761;SDS011;53672;48.176;16.338;2023-08-20T02:29:09;19.17;;;14.98;;
66761;SDS011;53672;48.176;16.338;2023-08-20T02:34:09;21.87;;;15.60;;
66761;SDS011;53672;48.176;16.338;2023-08-20T02:39:10;21.23;;;15.53;;
66761;SDS011;53672;48.176;16.338;2023-08-20T02:44:12;20.33;;;15.20;;
66761;SDS011;53672;48.176;16.338;2023-08-20T02:49:12;20.88;;;15.10;;
66761;SDS011;53672;48.176;16.338;2023-08-20T02:54:12;22.60;;;15.83;;
66761;SDS011;53672;48.176;16.338;2023-08-20T02:59:14;20.57;;;15.13;;
66761;SDS011;53672;48.176;16.338;2023-08-20T03:04:15;23.00;;;14.77;;
66761;SDS011;53672;48.176;16.338;2023-08-20T03:09:15;21.67;;;14.60;;
66761;SDS011;53672;48.176;16.338;2023-08-20T03:14:17;21.27;;;15.27;;
66761;SDS011;53672;48.176;16.338;2023-08-20T03:19:18;19.67;;;14.73;;
66761;SDS011;53672;48.176;16.338;2023-08-20T03:24:18;23.50;;;15.20;;
66761;SDS011;53672;48.176;16.338;2023-08-20T03:29:20;21.50;;;15.20;;
66761;SDS011;53672;48.176;16.338;2023-08-20T03:34:20;21.50;;;14.70;;
66761;SDS011;53672;48.176;16.338;2023-08-20T03:39:22;20.40;;;14.82;;
66761;SDS011;53672;48.176;16.338;2023-08-20T03:44:23;23.20;;;15.37;;
66761;SDS011;53672;48.176;16.338;2023-08-20T03:49:24;21.42;;;14.60;;
66761;SDS011;53672;48.176;16.338;2023-08-20T03:54:24;21.07;;;14.90;;
66761;SDS011;53672;48.176;16.338;2023-08-20T03:59:26;20.50;;;15.13;;
66761;SDS011;53672;48.176;16.338;2023-08-20T04:04:27;20.20;;;15.10;;
66761;SDS011;53672;48.176;16.338;2023-08-20T04:09:27;20.40;;;15.23;;
66761;SDS011;53672;48.176;16.338;2023-08-20T04:14:29;22.07;;;14.63;;
66761;SDS011;53672;48.176;16.338;2023-08-20T04:19:29;19.53;;;14.87;;
66761;SDS011;53672;48.176;16.338;2023-08-20T04:24:30;22.23;;;15.87;;
66761;SDS011;53672;48.176;16.338;2023-08-20T04:29:32;22.20;;;15.37;;
66761;SDS011;53672;48.176;16.338;2023-08-20T04:34:33;20.75;;;15.02;;
66761;SDS011;53672;48.176;16.338;2023-08-20T04:39:33;21.17;;;14.43;;
66761;SDS011;53672;48.176;16.338;2023-08-20T04:44:35;22.33;;;14.67;;
66761;SDS011;53672;48.176;16.338;2023-08-20T04:49:35;21.38;;;15.35;;
66761;SDS011;53672;48.176;16.338;2023-08-20T04:54:36;19.43;;;14.43;;
66761;SDS011;53672;48.176;16.338;2023-08-20T04:59:38;20.20;;;14.60;;
66761;SDS011;53672;48.176;16.338;2023-08-20T05:04:39;20.85;;;14.57;;
66761;SDS011;53672;48.176;16.338;2023-08-20T05:09:40;20.27;;;14.93;;
66761;SDS011;53672;48.176;16.338;2023-08-20T05:14:42;20.35;;;14.88;;
66761;SDS011;53672;48.176;16.338;2023-08-20T05:19:42;19.07;;;13.67;;
66761;SDS011;53672;48.176;16.338;2023-08-20T05:24:43;19.10;;;14.00;;
66761;SDS011;53672;48.176;16.338;2023-08-20T05:29:45;19.77;;;14.75;;
66761;SDS011;53672;48.176;16.338;2023-08-20T05:34:46;21.37;;;14.73;;
66761;SDS011;53672;48.176;16.338;2023-08-20T05:39:46;18.23;;;13.37;;
66761;SDS011;53672;48.176;16.338;2023-08-20T05:44:48;16.63;;;13.40;;
66761;SDS011;53672;48.176;16.338;2023-08-20T05:49:49;18.58;;;12.57;;
66761;SDS011;53672;48.176;16.338;2023-08-20T05:54:49;15.87;;;12.23;;
66761;SDS011;53672;48.176;16.338;2023-08-20T05:59:51;16.00;;;12.47;;
66761;SDS011;53672;48.176;16.338;2023-08-20T06:04:51;16.52;;;12.32;;
66761;SDS011;53672;48.176;16.338;2023-08-20T06:09:52;15.90;;;12.30;;
66761;SDS011;53672;48.176;16.338;2023-08-20T06:14:54;16.30;;;12.70;;
66761;SDS011;53672;48.176;16.338;2023-08-20T06:19:54;15.30;;;12.57;;
66761;SDS011;53672;48.176;16.338;2023-08-20T06:24:55;16.20;;;12.40;;
66761;SDS011;53672;48.176;16.338;2023-08-20T06:29:57;15.70;;;12.03;;
66761;SDS011;53672;48.176;16.338;2023-08-20T06:34:57;15.88;;;12.38;;
66761;SDS011;53672;48.176;16.338;2023-08-20T06:39:58;16.08;;;11.90;;
66761;SDS011;53672;48.176;16.338;2023-08-20T06:44:59;15.67;;;12.73;;
66761;SDS011;53672;48.176;16.338;2023-08-20T06:50:00;16.60;;;12.40;;
66761;SDS011;53672;48.176;16.338;2023-08-20T06:55:00;15.00;;;11.83;;
66761;SDS011;53672;48.176;16.338;2023-08-20T07:00:02;14.50;;;11.88;;
66761;SDS011;53672;48.176;16.338;2023-08-20T07:05:04;15.20;;;12.40;;
66761;SDS011;53672;48.176;16.338;2023-08-20T07:10:05;15.32;;;12.73;;
66761;SDS011;53672;48.176;16.338;2023-08-20T07:15:08;13.38;;;11.48;;
66761;SDS011;53672;48.176;16.338;2023-08-20T07:20:09;14.75;;;12.10;;
66761;SDS011;53672;48.176;16.338;2023-08-20T07:25:10;14.40;;;11.97;;
66761;SDS011;53672;48.176;16.338;2023-08-20T07:30:12;15.50;;;12.33;;
66761;SDS011;53672;48.176;16.338;2023-08-20T07:35:12;17.90;;;13.27;;
66761;SDS011;53672;48.176;16.338;2023-08-20T07:40:13;16.60;;;12.40;;
66761;SDS011;53672;48.176;16.338;2023-08-20T07:45:15;15.87;;;11.87;;
66761;SDS011;53672;48.176;16.338;2023-08-20T07:50:15;15.50;;;12.45;;
66761;SDS011;53672;48.176;16.338;2023-08-20T07:55:16;15.10;;;12.17;;
66761;SDS011;53672;48.176;16.338;2023-08-20T08:00:18;13.83;;;11.17;;
66761;SDS011;53672;48.176;16.338;2023-08-20T08:05:18;14.05;;;12.00;;
66761;SDS011;53672;48.176;16.338;2023-08-20T08:10:19;13.83;;;11.33;;
66761;SDS011;53672;48.176;16.338;2023-08-20T08:15:20;13.37;;;11.37;;
66761;SDS011;53672;48.176;16.338;2023-08-20T08:20:21;12.98;;;11.05;;
66761;SDS011;53672;48.176;16.338;2023-08-20T08:25:22;12.70;;;10.30;;
66761;SDS011;53672;48.176;16.338;2023-08-20T08:30:24;12.77;;;10.37;;
66761;SDS011;53672;48.176;16.338;2023-08-20T08:35:24;13.15;;;11.20;;
66761;SDS011;53672;48.176;16.338;2023-08-20T08:40:25;13.77;;;10.47;;
66761;SDS011;53672;48.176;16.338;2023-08-20T08:45:30;13.63;;;11.23;;
66761;SDS011;53672;48.176;16.338;2023-08-20T08:50:31;15.63;;;12.25;;
66761;SDS011;53672;48.176;16.338;2023-08-20T08:55:31;15.15;;;11.90;;
66761;SDS011;53672;48.176;16.338;2023-08-20T09:00:33;12.43;;;11.13;;
66761;SDS011;53672;48.176;16.338;2023-08-20T09:05:44;12.30;;;11.00;;
66761;SDS011;53672;48.176;16.338;2023-08-20T09:10:46;12.95;;;10.65;;
66761;SDS011;53672;48.176;16.338;2023-08-20T09:15:51;14.90;;;12.38;;
66761;SDS011;53672;48.176;16.338;2023-08-20T09:20:52;12.93;;;10.65;;
66761;SDS011;53672;48.176;16.338;2023-08-20T09:25:52;12.97;;;11.47;;
66761;SDS011;53672;48.176;16.338;2023-08-20T09:30:58;12.80;;;11.50;;
66761;SDS011;53672;48.176;16.338;2023-08-20T09:35:59;13.77;;;11.77;;
66761;SDS011;53672;48.176;16.338;2023-08-20T09:40:59;12.03;;;10.87;;
66761;SDS011;53672;48.176;16.338;2023-08-20T09:46:02;13.38;;;11.95;;
66761;SDS011;53672;48.176;16.338;2023-08-20T09:51:05;13.17;;;11.73;;
66761;SDS011;53672;48.176;16.338;2023-08-20T09:56:14;13.45;;;12.15;;
66761;SDS011;53672;48.176;16.338;2023-08-20T10:01:22;16.20;;;14.63;;
66761;SDS011;53672;48.176;16.338;2023-08-20T10:06:23;13.93;;;12.65;;
66761;SDS011;53672;48.176;16.338;2023-08-20T10:11:24;12.95;;;11.38;;
66761;SDS011;53672;48.176;16.338;2023-08-20T10:16:28;11.90;;;10.73;;
66761;SDS011;53672;48.176;16.338;2023-08-20T10:21:28;11.90;;;10.70;;
66761;SDS011;53672;48.176;16.338;2023-08-20T10:26:29;13.07;;;11.77;;
66761;SDS011;53672;48.176;16.338;2023-08-20T10:31:31;11.43;;;10.25;;
66761;SDS011;53672;48.176;16.338;2023-08-20T10:36:32;11.33;;;10.23;;
66761;SDS011;53672;48.176;16.338;2023-08-20T10:41:42;11.43;;;10.18;;
66761;SDS011;53672;48.176;16.338;2023-08-20T10:46:50;12.43;;;11.33;;
66761;SDS011;53672;48.176;16.338;2023-08-20T10:51:51;11.20;;;10.20;;
66761;SDS011;53672;48.176;16.338;2023-08-20T10:56:54;11.35;;;10.25;;
66761;SDS011;53672;48.176;16.338;2023-08-20T11:01:58;10.55;;;9.50;;
66761;SDS011;53672;48.176;16.338;2023-08-20T11:06:59;10.70;;;9.60;;
66761;SDS011;53672;48.176;16.338;2023-08-20T11:12:01;10.38;;;9.27;;
66761;SDS011;53672;48.176;16.338;2023-08-20T11:17:02;9.37;;;8.47;;
66761;SDS011;53672;48.176;16.338;2023-08-20T11:22:03;9.93;;;8.17;;
66761;SDS011;53672;48.176;16.338;2023-08-20T11:27:03;9.32;;;8.50;;
66761;SDS011;53672;48.176;16.338;2023-08-20T11:32:05;9.63;;;8.80;;
66761;SDS011;53672;48.176;16.338;2023-08-20T11:37:06;9.47;;;8.67;;
66761;SDS011;53672;48.176;16.338;2023-08-20T11:42:06;9.63;;;8.55;;
66761;SDS011;53672;48.176;16.338;2023-08-20T11:47:14;10.43;;;8.80;;
66761;SDS011;53672;48.176;16.338;2023-08-20T11:52:15;11.37;;;10.20;;
66761;SDS011;53672;48.176;16.338;2023-08-20T11:57:18;10.88;;;9.95;;
66761;SDS011;53672;48.176;16.338;2023-08-20T12:02:25;11.10;;;9.50;;
66761;SDS011;53672;48.176;16.338;2023-08-20T12:07:27;10.15;;;9.30;;
66761;SDS011;53672;48.176;16.338;2023-08-20T12:12:27;11.00;;;9.97;;
66761;SDS011;53672;48.176;16.338;2023-08-20T12:17:29;10.27;;;9.13;;
66761;SDS011;53672;48.176;16.338;2023-08-20T12:22:30;9.60;;;8.70;;
66761;SDS011;53672;48.176;16.338;2023-08-20T12:27:30;8.70;;;8.00;;
66761;SDS011;53672;48.176;16.338;2023-08-20T12:32:32;11.20;;;8.97;;
66761;SDS011;53672;48.176;16.338;2023-08-20T12:37:32;11.98;;;9.15;;
66761;SDS011;53672;48.176;16.338;2023-08-20T12:42:33;10.48;;;9.38;;
66761;SDS011;53672;48.176;16.338;2023-08-20T12:47:35;8.73;;;7.80;;
66761;SDS011;53672;48.176;16.338;2023-08-20T12:52:35;9.17;;;8.30;;
66761;SDS011;53672;48.176;16.338;2023-08-20T12:57:36;9.57;;;8.67;;
66761;SDS011;53672;48.176;16.338;2023-08-20T13:02:38;8.73;;;8.00;;
66761;SDS011;53672;48.176;16.338;2023-08-20T13:07:40;8.82;;;7.93;;
66761;SDS011;53672;48.176;16.338;2023-08-20T13:12:41;10.55;;;8.63;;
66761;SDS011;53672;48.176;16.338;2023-08-20T13:17:48;9.13;;;8.23;;
66761;SDS011;53672;48.176;16.338;2023-08-20T13:22:49;8.38;;;7.57;;
66761;SDS011;53672;48.176;16.338;2023-08-20T13:27:51;10.10;;;9.10;;
66761;SDS011;53672;48.176;16.338;2023-08-20T13:32:53;10.10;;;8.63;;
66761;SDS011;53672;48.176;16.338;2023-08-20T13:37:53;8.68;;;7.88;;
66761;SDS011;53672;48.176;16.338;2023-08-20T13:42:54;8.47;;;7.67;;
66761;SDS011;53672;48.176;16.338;2023-08-20T13:47:56;8.77;;;7.50;;
66761;SDS011;53672;48.176;16.338;2023-08-20T13:52:56;8.85;;;7.50;;
66761;SDS011;53672;48.176;16.338;2023-08-20T13:57:57;8.43;;;7.47;;
66761;SDS011;53672;48.176;16.338;2023-08-20T14:02:59;10.18;;;7.80;;
66761;SDS011;53672;48.176;16.338;2023-08-20T14:08:00;8.95;;;7.68;;
66761;SDS011;53672;48.176;16.338;2023-08-20T14:13:01;8.82;;;6.97;;
66761;SDS011;53672;48.176;16.338;2023-08-20T14:18:03;8.37;;;6.83;;
66761;SDS011;53672;48.176;16.338;2023-08-20T14:23:04;9.45;;;6.22;;
66761;SDS011;53672;48.176;16.338;2023-08-20T14:28:05;7.57;;;6.50;;
66761;SDS011;53672;48.176;16.338;2023-08-20T14:33:07;8.30;;;6.50;;
66761;SDS011;53672;48.176;16.338;2023-08-20T14:38:08;9.48;;;6.95;;
66761;SDS011;53672;48.176;16.338;2023-08-20T14:43:08;8.00;;;7.17;;
66761;SDS011;53672;48.176;16.338;2023-08-20T14:48:10;8.63;;;6.70;;
66761;SDS011;53672;48.176;16.338;2023-08-20T14:53:11;8.00;;;6.03;;
66761;SDS011;53672;48.176;16.338;2023-08-20T14:58:11;21.50;;;9.13;;
66761;SDS011;53672;48.176;16.338;2023-08-20T15:03:14;9.50;;;6.57;;
66761;SDS011;53672;48.176;16.338;2023-08-20T15:08:14;8.27;;;5.95;;
66761;SDS011;53672;48.176;16.338;2023-08-20T15:13:15;8.55;;;6.10;;
66761;SDS011;53672;48.176;16.338;2023-08-20T15:18:17;8.27;;;6.60;;
66761;SDS011;53672;48.176;16.338;2023-08-20T15:23:18;7.97;;;6.25;;
66761;SDS011;53672;48.176;16.338;2023-08-20T15:28:19;8.38;;;6.32;;
66761;SDS011;53672;48.176;16.338;2023-08-20T15:33:21;11.52;;;7.18;;
66761;SDS011;53672;48.176;16.338;2023-08-20T15:38:22;10.87;;;7.17;;
66761;SDS011;53672;48.176;16.338;2023-08-20T15:43:23;9.02;;;6.97;;
66761;SDS011;53672;48.176;16.338;2023-08-20T15:48:26;8.93;;;6.90;;
66761;SDS011;53672;48.176;16.338;2023-08-20T15:53:26;10.02;;;7.30;;
66761;SDS011;53672;48.176;16.338;2023-08-20T15:58:27;8.93;;;6.93;;
66761;SDS011;53672;48.176;16.338;2023-08-20T16:03:28;9.73;;;7.53;;
66761;SDS011;53672;48.176;16.338;2023-08-20T16:08:29;10.50;;;7.68;;
66761;SDS011;53672;48.176;16.338;2023-08-20T16:13:29;9.53;;;7.07;;
66761;SDS011;53672;48.176;16.338;2023-08-20T16:18:32;9.53;;;7.60;;
66761;SDS011;53672;48.176;16.338;2023-08-20T16:23:33;10.20;;;7.63;;
66761;SDS011;53672;48.176;16.338;2023-08-20T16:28:34;12.17;;;8.17;;
66761;SDS011;53672;48.176;16.338;2023-08-20T16:33:36;11.00;;;8.30;;
66761;SDS011;53672;48.176;16.338;2023-08-20T16:38:37;9.82;;;7.22;;
66761;SDS011;53672;48.176;16.338;2023-08-20T16:43:38;11.17;;;8.60;;
66761;SDS011;53672;48.176;16.338;2023-08-20T16:48:40;9.73;;;7.33;;
66761;SDS011;53672;48.176;16.338;2023-08-20T16:53:41;11.23;;;7.40;;
66761;SDS011;53672;48.176;16.338;2023-08-20T16:58:42;9.40;;;7.37;;
66761;SDS011;53672;48.176;16.338;2023-08-20T17:03:44;11.23;;;8.00;;
66761;SDS011;53672;48.176;16.338;2023-08-20T17:08:45;11.50;;;7.75;;
66761;SDS011;53672;48.176;16.338;2023-08-20T17:13:46;9.88;;;7.38;;
66761;SDS011;53672;48.176;16.338;2023-08-20T17:18:49;11.93;;;7.50;;
66761;SDS011;53672;48.176;16.338;2023-08-20T17:23:50;10.30;;;8.05;;
66761;SDS011;53672;48.176;16.338;2023-08-20T17:28:51;11.67;;;7.80;;
66761;SDS011;53672;48.176;16.338;2023-08-20T17:33:52;8.52;;;7.18;;
66761;SDS011;53672;48.176;16.338;2023-08-20T17:38:53;10.10;;;7.63;;
66761;SDS011;53672;48.176;16.338;2023-08-20T17:43:54;11.60;;;8.23;;
66761;SDS011;53672;48.176;16.338;2023-08-20T17:48:57;11.23;;;7.90;;
66761;SDS011;53672;48.176;16.338;2023-08-20T17:53:58;10.43;;;8.35;;
66761;SDS011;53672;48.176;16.338;2023-08-20T17:58:58;11.35;;;8.27;;
66761;SDS011;53672;48.176;16.338;2023-08-20T18:04:00;13.27;;;9.47;;
66761;SDS011;53672;48.176;16.338;2023-08-20T18:09:01;10.27;;;8.75;;
66761;SDS011;53672;48.176;16.338;2023-08-20T18:14:02;10.93;;;8.50;;
66761;SDS011;53672;48.176;16.338;2023-08-20T18:19:04;11.68;;;8.55;;
66761;SDS011;53672;48.176;16.338;2023-08-20T18:24:05;11.70;;;8.60;;
66761;SDS011;53672;48.176;16.338;2023-08-20T18:29:06;13.10;;;10.10;;
66761;SDS011;53672;48.176;16.338;2023-08-20T18:34:08;10.37;;;8.60;;
66761;SDS011;53672;48.176;16.338;2023-08-20T18:39:09;10.95;;;9.50;;
66761;SDS011;53672;48.176;16.338;2023-08-20T18:44:10;12.27;;;9.00;;
66761;SDS011;53672;48.176;16.338;2023-08-20T18:49:13;14.52;;;10.35;;
66761;SDS011;53672;48.176;16.338;2023-08-20T18:54:14;11.65;;;9.15;;
66761;SDS011;53672;48.176;16.338;2023-08-20T18:59:16;11.77;;;9.33;;
66761;SDS011;53672;48.176;16.338;2023-08-20T19:04:19;12.35;;;9.05;;
66761;SDS011;53672;48.176;16.338;2023-08-20T19:09:20;12.52;;;9.30;;
66761;SDS011;53672;48.176;16.338;2023-08-20T19:14:21;12.90;;;9.10;;
66761;SDS011;53672;48.176;16.338;2023-08-20T19:19:24;14.45;;;8.88;;
66761;SDS011;53672;48.176;16.338;2023-08-20T19:24:25;11.70;;;8.77;;
66761;SDS011;53672;48.176;16.338;2023-08-20T19:29:26;12.45;;;9.75;;
66761;SDS011;53672;48.176;16.338;2023-08-20T19:34:30;12.35;;;9.48;;
66761;SDS011;53672;48.176;16.338;2023-08-20T19:39:31;13.10;;;9.15;;
66761;SDS011;53672;48.176;16.338;2023-08-20T19:44:32;13.23;;;9.43;;
66761;SDS011;53672;48.176;16.338;2023-08-20T19:49:34;12.33;;;9.40;;
66761;SDS011;53672;48.176;16.338;2023-08-20T19:54:35;13.75;;;9.70;;
66761;SDS011;53672;48.176;16.338;2023-08-20T19:59:36;14.13;;;9.60;;
66761;SDS011;53672;48.176;16.338;2023-08-20T20:04:39;13.32;;;9.38;;
66761;SDS011;53672;48.176;16.338;2023-08-20T20:09:41;12.27;;;9.75;;
66761;SDS011;53672;48.176;16.338;2023-08-20T20:14:42;12.93;;;8.67;;
66761;SDS011;53672;48.176;16.338;2023-08-20T20:19:44;12.68;;;9.68;;
66761;SDS011;53672;48.176;16.338;2023-08-20T20:24:45;12.83;;;9.67;;
66761;SDS011;53672;48.176;16.338;2023-08-20T20:29:47;11.93;;;9.88;;
66761;SDS011;53672;48.176;16.338;2023-08-20T20:34:49;13.20;;;9.82;;
66761;SDS011;53672;48.176;16.338;2023-08-20T20:39:50;12.63;;;9.93;;
66761;SDS011;53672;48.176;16.338;2023-08-20T20:44:51;15.77;;;11.10;;
66761;SDS011;53672;48.176;16.338;2023-08-20T20:49:54;13.13;;;9.70;;
66761;SDS011;53672;48.176;16.338;2023-08-20T20:54:55;13.82;;;9.98;;
66761;SDS011;53672;48.176;16.338;2023-08-20T20:59:56;16.17;;;10.40;;
66761;SDS011;53672;48.176;16.338;2023-08-20T21:04:58;13.75;;;9.90;;
66761;SDS011;53672;48.176;16.338;2023-08-20T21:09:59;16.25;;;10.00;;
66761;SDS011;53672;48.176;16.338;2023-08-20T21:14:59;14.33;;;9.83;;
66761;SDS011;53672;48.176;16.338;2023-08-20T21:20:01;13.87;;;10.53;;
66761;SDS011;53672;48.176;16.338;2023-08-20T21:25:02;14.93;;;10.13;;
66761;SDS011;53672;48.176;16.338;2023-08-20T21:30:03;11.60;;;9.57;;
66761;SDS011;53672;48.176;16.338;2023-08-20T21:35:06;15.10;;;10.02;;
66761;SDS011;53672;48.176;16.338;2023-08-20T21:40:07;16.27;;;9.82;;
66761;SDS011;53672;48.176;16.338;2023-08-20T21:45:08;12.82;;;10.20;;
66761;SDS011;53672;48.176;16.338;2023-08-20T21:50:10;13.63;;;10.53;;
66761;SDS011;53672;48.176;16.338;2023-08-20T21:55:11;13.97;;;10.30;;
66761;SDS011;53672;48.176;16.338;2023-08-20T22:00:15;12.18;;;9.48;;
66761;SDS011;53672;48.176;16.338;2023-08-20T22:05:17;13.38;;;9.60;;
66761;SDS011;53672;48.176;16.338;2023-08-20T22:10:19;14.27;;;10.10;;
66761;SDS011;53672;48.176;16.338;2023-08-20T22:15:19;14.13;;;9.87;;
66761;SDS011;53672;48.176;16.338;2023-08-20T22:20:21;13.57;;;9.73;;
66761;SDS011;53672;48.176;16.338;2023-08-20T22:25:21;14.20;;;9.63;;
66761;SDS011;53672;48.176;16.338;2023-08-20T22:30:22;16.17;;;9.90;;
66761;SDS011;53672;48.176;16.338;2023-08-20T22:35:24;16.07;;;9.60;;
66761;SDS011;53672;48.176;16.338;2023-08-20T22:40:24;13.88;;;10.20;;
66761;SDS011;53672;48.176;16.338;2023-08-20T22:45:25;13.17;;;10.07;;
66761;SDS011;53672;48.176;16.338;2023-08-20T22:50:27;14.83;;;10.23;;
66761;SDS011;53672;48.176;16.338;2023-08-20T22:55:28;14.07;;;9.90;;
66761;SDS011;53672;48.176;16.338;2023-08-20T23:00:29;13.20;;;10.10;;
66761;SDS011;53672;48.176;16.338;2023-08-20T23:05:31;14.80;;;10.60;;
66761;SDS011;53672;48.176;16.338;2023-08-20T23:10:31;15.05;;;10.00;;
66761;SDS011;53672;48.176;16.338;2023-08-20T23:15:32;12.63;;;10.30;;
66761;SDS011;53672;48.176;16.338;2023-08-20T23:20:34;14.63;;;10.40;;
66761;SDS011;53672;48.176;16.338;2023-08-20T23:25:34;13.02;;;10.10;;
66761;SDS011;53672;48.176;16.338;2023-08-20T23:30:34;14.87;;;10.50;;
66761;SDS011;53672;48.176;16.338;2023-08-20T23:35:36;14.70;;;10.03;;
66761;SDS011;53672;48.176;16.338;2023-08-20T23:40:39;13.20;;;9.80;;
66761;SDS011;53672;48.176;16.338;2023-08-20T23:45:39;15.60;;;10.15;;
66761;SDS011;53672;48.176;16.338;2023-08-20T23:50:41;14.40;;;10.27;;
66761;SDS011;53672;48.176;16.338;2023-08-20T23:55:42;13.80;;;9.90;;
